Time;durP1;ratioP1;P1;durP2;ratioP2;P2;SDS_P1;SDS_P2;PMS_P1;PMS_P2;Temp;Humidity;BMP_temperature;BMP_pressure;BME280_temperature;BME280_humidity;BME280_pressure;Samples;Min_cycle;Max_cycle;Signal;HPM_P1;HPM_P2
2021/03/11 00:00:48;;;;;;;7.75;5.28;;;20.30;92.30;;;;;;5133087;27;20023;-71
2021/03/11 00:03:23;;;;;;;8.30;6.03;;;20.30;92.20;;;;;;5133685;27;20031;-71
2021/03/11 00:05:50;;;;;;;8.38;5.60;;;20.30;92.10;;;;;;5132036;27;20047;-71
2021/03/11 00:08:16;;;;;;;9.40;5.78;;;20.30;92.10;;;;;;5133202;27;20027;-71
2021/03/11 00:10:43;;;;;;;10.15;5.95;;;20.30;92.20;;;;;;5131985;27;20023;-71
2021/03/11 00:13:10;;;;;;;8.77;5.55;;;20.30;92.20;;;;;;5133707;27;20018;-72
2021/03/11 00:15:42;;;;;;;7.65;5.90;;;20.30;92.20;;;;;;5132188;27;20038;-72
2021/03/11 00:18:10;;;;;;;7.63;5.80;;;20.30;92.30;;;;;;5131499;27;20023;-72
2021/03/11 00:20:37;;;;;;;7.88;5.32;;;20.30;92.20;;;;;;5133123;27;20434;-72
2021/03/11 00:23:04;;;;;;;6.03;5.13;;;20.30;92.10;;;;;;5132366;27;20015;-72
2021/03/11 00:25:33;;;;;;;8.05;5.82;;;20.30;92.10;;;;;;5132532;27;20035;-73
2021/03/11 00:27:59;;;;;;;9.00;5.93;;;20.30;92.20;;;;;;5138037;27;20027;-73
2021/03/11 00:30:26;;;;;;;9.85;6.00;;;20.30;92.20;;;;;;5132857;27;20489;-72
2021/03/11 00:32:53;;;;;;;7.78;4.88;;;20.30;92.20;;;;;;5131930;27;20034;-73
2021/03/11 00:35:21;;;;;;;7.43;5.80;;;20.30;92.20;;;;;;5131839;27;20602;-72
2021/03/11 00:37:49;;;;;;;10.15;6.18;;;20.20;92.30;;;;;;5132225;27;20062;-72
2021/03/11 00:40:18;;;;;;;7.35;5.55;;;20.20;92.30;;;;;;5128077;27;20500;-72
2021/03/11 00:42:44;;;;;;;9.07;5.63;;;20.30;92.40;;;;;;5131933;27;20065;-73
2021/03/11 00:45:12;;;;;;;10.52;6.80;;;20.30;92.50;;;;;;5130353;27;20111;-73
2021/03/11 00:47:40;;;;;;;7.50;5.68;;;20.30;92.50;;;;;;5133449;27;20023;-75
2021/03/11 00:50:10;;;;;;;7.95;6.32;;;20.30;92.50;;;;;;5131029;27;20019;-73
2021/03/11 00:52:36;;;;;;;9.93;6.35;;;20.30;92.30;;;;;;5132029;27;20443;-73
2021/03/11 00:55:08;;;;;;;13.23;7.53;;;20.30;92.40;;;;;;5131868;27;20008;-71
2021/03/11 00:57:34;;;;;;;14.48;8.05;;;20.30;92.50;;;;;;5131438;27;20080;-73
2021/03/11 01:00:01;;;;;;;13.50;8.18;;;20.30;92.50;;;;;;5131942;27;20072;-75
2021/03/11 01:02:28;;;;;;;18.20;9.90;;;20.30;92.50;;;;;;5129854;27;20031;-74
2021/03/11 01:04:54;;;;;;;16.25;7.50;;;20.30;92.50;;;;;;5132745;27;20016;-75
2021/03/11 01:07:21;;;;;;;30.20;11.63;;;20.30;92.50;;;;;;5130560;27;20027;-74
2021/03/11 01:09:47;;;;;;;9.75;8.25;;;20.30;92.60;;;;;;5131829;27;20029;-76
2021/03/11 01:12:14;;;;;;;12.48;8.23;;;20.30;92.60;;;;;;5132460;27;20019;-73
2021/03/11 01:14:42;;;;;;;9.07;6.72;;;20.20;92.50;;;;;;5126881;27;20030;-73
2021/03/11 01:17:09;;;;;;;12.73;6.65;;;20.30;92.80;;;;;;5131716;27;20038;-75
2021/03/11 01:19:37;;;;;;;7.88;6.13;;;20.30;92.50;;;;;;5134216;27;20011;-73
2021/03/11 01:22:04;;;;;;;7.40;5.90;;;20.20;92.50;;;;;;5114493;27;20030;-72
2021/03/11 01:24:34;;;;;;;6.53;5.00;;;20.20;92.40;;;;;;5130834;27;20534;-72
2021/03/11 01:27:01;;;;;;;6.38;4.55;;;20.20;92.50;;;;;;5108154;27;20034;-72
2021/03/11 01:29:28;;;;;;;8.18;5.28;;;20.20;92.50;;;;;;5111070;27;20073;-75
2021/03/11 01:31:54;;;;;;;4.32;3.58;;;20.20;92.50;;;;;;5131480;27;20030;-73
2021/03/11 01:34:21;;;;;;;5.18;3.92;;;20.20;92.50;;;;;;5133248;27;20023;-72
2021/03/11 01:36:48;;;;;;;13.10;3.63;;;20.20;92.40;;;;;;5135029;27;20042;-73
2021/03/11 01:39:14;;;;;;;6.88;2.78;;;20.20;92.20;;;;;;5131275;27;20103;-75
2021/03/11 01:41:41;;;;;;;4.88;2.33;;;20.20;92.10;;;;;;5131338;27;20485;-76
2021/03/11 01:44:07;;;;;;;3.90;2.38;;;20.20;91.90;;;;;;5132778;27;20111;-75
2021/03/11 01:46:34;;;;;;;3.65;2.30;;;20.20;91.90;;;;;;5129860;27;20046;-74
2021/03/11 01:49:00;;;;;;;8.23;3.15;;;20.20;91.80;;;;;;5130826;27;20539;-75
2021/03/11 01:51:29;;;;;;;6.28;2.40;;;20.20;91.70;;;;;;5130006;27;20023;-72
2021/03/11 01:53:56;;;;;;;3.50;1.85;;;20.20;91.70;;;;;;5130925;27;20106;-74
2021/03/11 01:56:23;;;;;;;4.63;1.90;;;20.20;91.30;;;;;;5130053;27;20084;-77
2021/03/11 01:58:49;;;;;;;5.18;2.90;;;20.10;91.00;;;;;;5130475;27;20536;-74
2021/03/11 02:01:16;;;;;;;10.43;2.80;;;20.10;90.90;;;;;;5135694;27;20027;-74
2021/03/11 02:03:42;;;;;;;5.53;2.00;;;20.10;90.50;;;;;;5126741;27;20023;-75
2021/03/11 02:06:48;;;;;;;7.45;1.20;;;20.10;90.40;;;;;;5101691;27;20027;-76
2021/03/11 02:09:54;;;;;;;4.78;1.45;;;20.10;90.30;;;;;;5127045;27;20026;-72
2021/03/11 02:12:36;;;;;;;4.10;1.55;;;20.00;90.20;;;;;;5130728;27;20024;-74
2021/03/11 02:15:54;;;;;;;6.03;1.70;;;20.00;90.00;;;;;;5128924;27;20561;-74
2021/03/11 02:19:02;;;;;;;10.57;2.13;;;20.00;89.80;;;;;;5125846;27;20038;-75
2021/03/11 02:22:08;;;;;;;10.68;3.03;;;20.00;89.50;;;;;;5127851;27;20027;-74
2021/03/11 02:25:09;;;;;;;12.20;2.72;;;20.00;89.00;;;;;;5126846;27;20059;-72
2021/03/11 02:28:17;;;;;;;6.68;1.92;;;19.90;89.20;;;;;;5129258;27;20023;-72
2021/03/11 02:31:23;;;;;;;11.55;2.28;;;19.90;89.10;;;;;;5128810;27;20038;-73
2021/03/11 02:34:32;;;;;;;9.82;2.28;;;19.90;89.10;;;;;;5129422;27;20428;-74
2021/03/11 02:37:38;;;;;;;11.43;2.95;;;19.80;89.10;;;;;;5129302;27;20051;-74
2021/03/11 02:40:08;;;;;;;8.82;3.00;;;19.80;88.80;;;;;;5130135;27;20023;-71
2021/03/11 02:42:35;;;;;;;12.35;3.05;;;19.70;88.70;;;;;;5133121;27;20027;-73
2021/03/11 02:45:04;;;;;;;6.47;2.03;;;19.80;88.70;;;;;;5134162;27;20064;-75
2021/03/11 02:47:31;;;;;;;8.90;2.30;;;19.80;88.80;;;;;;5127773;27;20056;-72
2021/03/11 02:50:01;;;;;;;9.57;2.47;;;19.70;88.80;;;;;;5131491;27;20031;-75
2021/03/11 02:52:28;;;;;;;7.65;2.20;;;19.70;89.00;;;;;;5130430;27;20012;-72
2021/03/11 02:54:56;;;;;;;4.78;2.38;;;19.70;89.10;;;;;;5129921;27;20453;-72
2021/03/11 02:57:24;;;;;;;10.57;3.75;;;19.60;89.30;;;;;;5130651;27;20024;-73
2021/03/11 02:59:52;;;;;;;5.53;2.05;;;19.60;89.20;;;;;;5111006;27;20461;-74
2021/03/11 03:02:18;;;;;;;24.13;15.20;;;19.60;88.90;;;;;;5131209;27;20023;-72
2021/03/11 03:04:51;;;;;;;26.33;19.58;;;19.60;89.30;;;;;;5133426;27;20030;-72
2021/03/11 03:07:18;;;;;;;11.05;6.65;;;19.60;89.60;;;;;;5136750;27;20022;-72
2021/03/11 03:09:49;;;;;;;6.68;2.83;;;19.60;89.40;;;;;;5128643;27;20027;-72
2021/03/11 03:12:17;;;;;;;9.82;2.75;;;19.60;89.20;;;;;;5130522;27;20019;-73
2021/03/11 03:14:46;;;;;;;10.25;2.28;;;19.50;89.00;;;;;;5134437;27;20031;-71
2021/03/11 03:17:20;;;;;;;5.40;2.33;;;19.50;89.20;;;;;;5134134;27;20062;-74
2021/03/11 03:19:48;;;;;;;5.57;1.55;;;19.50;89.50;;;;;;5134125;27;20019;-73
2021/03/11 03:22:15;;;;;;;3.97;1.75;;;19.50;89.60;;;;;;5133142;27;20024;-71
2021/03/11 03:24:47;;;;;;;5.10;2.00;;;19.50;89.70;;;;;;5134273;27;20110;-72
2021/03/11 03:27:23;;;;;;;7.78;2.15;;;19.50;89.60;;;;;;5108825;27;20066;-73
2021/03/11 03:29:58;;;;;;;10.50;2.15;;;19.50;89.30;;;;;;5118071;27;20024;-73
2021/03/11 03:32:27;;;;;;;;;;;19.50;89.40;;;;;;5109119;27;20118;-73
2021/03/11 03:35:10;;;;;;;10.10;2.53;;;19.40;89.50;;;;;;5110581;27;20320;-74
2021/03/11 03:37:37;;;;;;;7.00;1.67;;;19.40;89.60;;;;;;5087607;28;20048;-73
2021/03/11 03:40:07;;;;;;;7.70;2.25;;;19.30;89.70;;;;;;5090635;28;20352;-75
2021/03/11 03:42:39;;;;;;;11.57;3.83;;;19.30;89.40;;;;;;5092952;28;20103;-73
2021/03/11 03:45:11;;;;;;;28.50;20.50;;;19.30;89.40;;;;;;5091928;28;20023;-74
2021/03/11 03:47:42;;;;;;;14.50;10.23;;;19.40;89.50;;;;;;5092682;28;20020;-73
2021/03/11 03:50:10;;;;;;;9.88;4.95;;;19.30;89.20;;;;;;5092675;28;20016;-73
2021/03/11 03:52:39;;;;;;;10.18;3.58;;;19.30;89.20;;;;;;5091193;28;20020;-78
2021/03/11 03:55:07;;;;;;;4.97;1.88;;;19.30;89.00;;;;;;5094005;28;20020;-72
2021/03/11 03:57:36;;;;;;;12.68;3.17;;;19.20;89.00;;;;;;5091405;28;20032;-74
2021/03/11 04:00:06;;;;;;;8.88;2.92;;;19.20;89.20;;;;;;5092327;28;20016;-78
2021/03/11 04:03:12;;;;;;;9.57;3.08;;;19.20;89.10;;;;;;5082700;28;20021;-77
2021/03/11 04:06:19;;;;;;;9.52;2.78;;;19.10;89.10;;;;;;5089692;28;20024;-72
2021/03/11 06:43:19;;;;;;;12.30;2.70;;;19.00;91.20;;;;;;5097385;27;20435;-70
2021/03/11 06:45:46;;;;;;;8.18;2.33;;;19.60;90.50;;;;;;5101110;28;20492;-71
2021/03/11 06:48:24;;;;;;;14.80;3.55;;;19.70;90.70;;;;;;5099135;28;20015;-70
2021/03/11 06:50:52;;;;;;;9.25;2.65;;;19.70;90.00;;;;;;5098160;28;20016;-71
2021/03/11 06:53:19;;;;;;;8.63;2.42;;;19.80;89.30;;;;;;5096743;28;20020;-70
2021/03/11 06:55:46;;;;;;;6.68;2.22;;;19.90;88.40;;;;;;5098588;28;20103;-70
2021/03/11 06:58:20;;;;;;;6.50;2.10;;;20.00;87.50;;;;;;5095938;28;20036;-71
2021/03/11 07:00:48;;;;;;;7.50;2.17;;;20.00;86.60;;;;;;5094334;28;20482;-70
2021/03/11 07:03:15;;;;;;;6.53;1.60;;;20.10;86.00;;;;;;5100864;28;20466;-71
2021/03/11 07:05:44;;;;;;;9.85;3.67;;;20.20;85.20;;;;;;5101682;28;20479;-70
2021/03/11 07:08:16;;;;;;;9.85;3.03;;;20.20;84.90;;;;;;5099808;28;20516;-70
2021/03/11 07:10:47;;;;;;;11.80;2.13;;;20.30;84.60;;;;;;5096417;28;20036;-69
2021/03/11 07:13:14;;;;;;;8.73;2.42;;;20.30;84.00;;;;;;5098016;28;20790;-71
2021/03/11 07:15:41;;;;;;;5.22;2.53;;;20.30;83.20;;;;;;5093865;28;20058;-69
2021/03/11 07:18:20;;;;;;;8.20;2.80;;;20.40;82.70;;;;;;5096188;28;20623;-68
2021/03/11 07:20:46;;;;;;;5.60;2.47;;;20.40;82.30;;;;;;5098215;28;20024;-69
2021/03/11 07:23:16;;;;;;;37.40;28.95;;;20.50;81.80;;;;;;5100666;28;20027;-70
2021/03/11 07:25:44;;;;;;;29.85;22.27;;;20.50;80.40;;;;;;5099778;28;20024;-70
2021/03/11 07:28:23;;;;;;;14.30;4.70;;;20.60;80.20;;;;;;5095010;28;20027;-69
2021/03/11 07:30:57;;;;;;;9.98;2.58;;;20.60;79.40;;;;;;5100914;28;20386;-70
2021/03/11 07:33:26;;;;;;;11.10;2.83;;;20.70;78.50;;;;;;5099722;28;20027;-69
2021/03/11 07:35:58;;;;;;;10.35;2.30;;;20.70;78.50;;;;;;5096507;28;20444;-68
2021/03/11 07:38:27;;;;;;;4.30;1.70;;;20.80;77.20;;;;;;5097722;28;20711;-68
2021/03/11 07:41:01;;;;;;;8.05;2.05;;;20.90;75.00;;;;;;5076256;28;20020;-70
2021/03/11 07:43:31;;;;;;;11.32;2.13;;;20.90;75.30;;;;;;5085265;28;20573;-68
2021/03/11 07:46:03;;;;;;;8.93;1.85;;;21.00;75.30;;;;;;5079940;28;20063;-68
2021/03/11 07:48:29;;;;;;;10.50;2.08;;;21.10;75.80;;;;;;5087732;28;20012;-69
2021/03/11 07:50:57;;;;;;;5.38;1.30;;;21.10;73.20;;;;;;5085056;28;20065;-70
2021/03/11 07:53:28;;;;;;;9.18;2.28;;;21.10;72.30;;;;;;5085113;28;20045;-69
2021/03/11 07:55:59;;;;;;;5.57;1.60;;;21.20;71.60;;;;;;5080133;28;20028;-68
2021/03/11 07:58:25;;;;;;;249.85;225.25;;;21.30;71.60;;;;;;5079489;28;20043;-68
2021/03/11 08:00:52;;;;;;;20.05;13.90;;;21.30;70.80;;;;;;5084768;28;20413;-70
2021/03/11 08:03:22;;;;;;;73.35;59.90;;;21.50;70.80;;;;;;5081971;28;20494;-71
2021/03/11 08:05:49;;;;;;;11.38;8.35;;;21.60;71.20;;;;;;5075507;28;20363;-69
2021/03/11 08:08:18;;;;;;;7.70;2.25;;;21.60;70.60;;;;;;5086674;28;20031;-71
2021/03/11 08:10:49;;;;;;;3.53;1.27;;;21.70;68.50;;;;;;5081511;28;20087;-70
2021/03/11 08:13:27;;;;;;;6.80;2.13;;;21.80;67.80;;;;;;5075712;28;20468;-71
2021/03/11 08:15:55;;;;;;;7.05;1.98;;;21.90;67.20;;;;;;5081117;28;20025;-70
2021/03/11 08:18:34;;;;;;;7.53;1.40;;;21.90;67.30;;;;;;5085541;28;20028;-70
2021/03/11 08:21:26;;;;;;;5.57;1.60;;;22.00;67.40;;;;;;5083725;28;20031;-70
2021/03/11 08:23:54;;;;;;;10.63;2.45;;;22.00;67.10;;;;;;5082866;28;20017;-69
2021/03/11 08:26:38;;;;;;;7.45;1.88;;;22.10;65.60;;;;;;5084037;28;20028;-70
2021/03/11 08:29:19;;;;;;;6.28;1.10;;;22.10;65.10;;;;;;5085887;28;20035;-70
2021/03/11 08:31:47;;;;;;;6.78;1.40;;;22.20;64.30;;;;;;5082610;28;20068;-70
2021/03/11 08:34:38;;;;;;;4.05;1.60;;;22.20;64.20;;;;;;5082189;28;20110;-69
2021/03/11 08:37:22;;;;;;;6.07;1.77;;;22.30;63.70;;;;;;5075557;28;20577;-69
2021/03/11 08:39:49;;;;;;;6.47;1.23;;;22.40;63.80;;;;;;5080768;28;20063;-69
2021/03/11 08:42:46;;;;;;;7.82;1.85;;;22.50;63.50;;;;;;5082146;28;20040;-70
2021/03/11 08:45:33;;;;;;;6.63;1.92;;;22.60;62.40;;;;;;5074895;28;20028;-69
2021/03/11 08:48:14;;;;;;;6.03;1.38;;;22.60;60.90;;;;;;5076926;28;20050;-70
2021/03/11 08:50:45;;;;;;;4.03;1.20;;;22.60;60.50;;;;;;5081959;28;20093;-70
2021/03/11 08:53:12;;;;;;;4.35;1.13;;;22.50;61.10;;;;;;5083217;28;20081;-69
2021/03/11 08:55:39;;;;;;;8.00;1.58;;;22.60;59.30;;;;;;5076163;28;20024;-71
2021/03/11 08:58:27;;;;;;;4.93;2.05;;;22.60;59.40;;;;;;5080713;28;20448;-71
2021/03/11 09:01:03;;;;;;;2.83;1.52;;;22.60;59.00;;;;;;5083941;28;20044;-69
2021/03/11 09:03:46;;;;;;;4.40;1.10;;;22.60;58.50;;;;;;5073417;28;20024;-69
2021/03/11 09:06:15;;;;;;;2.00;0.98;;;22.60;58.40;;;;;;5085280;28;20110;-69
2021/03/11 09:08:55;;;;;;;5.00;1.70;;;22.70;58.00;;;;;;5081144;28;20020;-69
2021/03/11 09:11:23;;;;;;;4.63;1.15;;;22.80;58.40;;;;;;5076098;28;20025;-70
2021/03/11 09:13:52;;;;;;;5.90;1.60;;;22.80;59.30;;;;;;5080438;28;20024;-70
2021/03/11 09:16:26;;;;;;;5.10;1.27;;;23.00;57.60;;;;;;5076934;28;20016;-70
2021/03/11 09:18:54;;;;;;;8.17;1.53;;;23.10;58.20;;;;;;5079793;28;20032;-72
2021/03/11 09:21:21;;;;;;;3.03;1.48;;;23.20;57.30;;;;;;5076470;28;20361;-71
2021/03/11 09:23:48;;;;;;;4.00;1.00;;;23.30;57.60;;;;;;5081899;28;20059;-70
2021/03/11 09:26:28;;;;;;;2.25;1.10;;;23.40;57.10;;;;;;5087263;28;20073;-69
2021/03/11 09:28:56;;;;;;;2.85;1.48;;;23.60;57.30;;;;;;5083149;28;20032;-71
2021/03/11 09:31:27;;;;;;;5.32;1.63;;;23.70;56.50;;;;;;5083140;28;20027;-69
2021/03/11 09:34:00;;;;;;;4.20;1.33;;;23.90;54.30;;;;;;5079407;28;20023;-70
2021/03/11 09:36:27;;;;;;;3.17;1.20;;;23.80;53.50;;;;;;5078033;28;20016;-70
2021/03/11 09:39:04;;;;;;;6.68;1.60;;;23.90;54.80;;;;;;5083921;28;20221;-70
2021/03/11 09:41:31;;;;;;;8.00;1.55;;;23.90;54.80;;;;;;5082444;28;20487;-71
2021/03/11 09:44:04;;;;;;;19.58;17.20;;;23.90;54.40;;;;;;5080965;28;20043;-70
2021/03/11 09:46:30;;;;;;;50.25;44.90;;;24.00;54.50;;;;;;5078261;28;20020;-70
2021/03/11 09:48:58;;;;;;;17.23;8.18;;;24.00;54.70;;;;;;5079086;28;20422;-70
2021/03/11 09:51:29;;;;;;;8.85;2.55;;;24.10;55.90;;;;;;5078810;28;20516;-70
2021/03/11 09:54:01;;;;;;;7.10;2.42;;;24.10;59.10;;;;;;5083211;28;20028;-71
2021/03/11 09:56:33;;;;;;;11.63;3.08;;;23.90;60.20;;;;;;5082130;28;20024;-71
2021/03/11 09:59:08;;;;;;;6.80;1.58;;;23.80;60.20;;;;;;5076911;28;20472;-72
2021/03/11 10:01:42;;;;;;;6.82;2.00;;;23.70;59.90;;;;;;5085218;28;20513;-71
2021/03/11 10:04:16;;;;;;;5.63;1.70;;;23.70;60.50;;;;;;5077439;28;20390;-71
2021/03/11 10:06:56;;;;;;;12.15;1.95;;;23.70;62.60;;;;;;5083327;28;20035;-71
2021/03/11 10:09:24;;;;;;;4.95;1.73;;;23.70;61.70;;;;;;5079139;28;20076;-71
2021/03/11 10:11:53;;;;;;;5.88;2.38;;;23.70;60.60;;;;;;5082349;28;20023;-71
2021/03/11 10:14:22;;;;;;;7.97;1.75;;;23.70;59.90;;;;;;5077024;28;20032;-71
2021/03/11 10:16:52;;;;;;;3.35;1.88;;;23.80;59.70;;;;;;5079221;28;20024;-71
2021/03/11 10:19:40;;;;;;;5.85;1.20;;;23.70;59.50;;;;;;5083185;28;20387;-72
2021/03/11 10:22:17;;;;;;;7.47;3.10;;;23.60;58.50;;;;;;5081602;28;20077;-71
2021/03/11 10:24:48;;;;;;;7.80;1.90;;;23.60;59.30;;;;;;5076943;28;20027;-72
2021/03/11 10:27:24;;;;;;;3.47;1.27;;;23.50;59.00;;;;;;5085814;28;20024;-72
2021/03/11 10:30:20;;;;;;;10.25;2.83;;;23.40;59.20;;;;;;5076051;28;20075;-73
2021/03/11 10:32:55;;;;;;;10.02;4.20;;;23.30;59.20;;;;;;5076917;28;20034;-72
2021/03/11 10:35:33;;;;;;;10.63;2.05;;;23.20;59.90;;;;;;5081176;28;20024;-71
2021/03/11 10:38:20;;;;;;;3.50;1.35;;;23.10;60.40;;;;;;5076305;28;20032;-70
2021/03/11 10:40:48;;;;;;;9.23;1.85;;;23.10;60.20;;;;;;5079509;28;20399;-70
2021/03/11 10:43:17;;;;;;;7.57;1.85;;;23.10;61.40;;;;;;5074463;28;20623;-72
2021/03/11 10:45:44;;;;;;;4.03;1.42;;;23.10;60.40;;;;;;5081333;28;20476;-72
2021/03/11 10:48:11;;;;;;;4.13;1.55;;;23.00;60.40;;;;;;5082949;28;20043;-73
2021/03/11 10:50:49;;;;;;;4.43;2.15;;;23.20;59.80;;;;;;5077107;28;20122;-72
2021/03/11 10:53:18;;;;;;;7.00;1.42;;;23.30;58.90;;;;;;5081023;28;20467;-72
2021/03/11 10:55:46;;;;;;;6.22;2.58;;;23.50;58.50;;;;;;5077166;28;20031;-72
2021/03/11 10:58:21;;;;;;;4.70;1.13;;;23.70;58.10;;;;;;5083269;28;20044;-72
2021/03/11 11:00:48;;;;;;;;;;;23.70;55.90;;;;;;5082217;28;20039;-72
2021/03/11 11:03:19;;;;;;;6.32;2.08;;;23.80;56.50;;;;;;5084328;28;19904;-72
2021/03/11 11:05:46;;;;;;;7.20;1.40;;;23.90;55.40;;;;;;5083005;28;20043;-72
2021/03/11 11:08:13;;;;;;;7.78;1.45;;;24.00;55.50;;;;;;5075737;28;20013;-73
2021/03/11 11:10:40;;;;;;;5.47;2.05;;;24.00;54.90;;;;;;5080762;28;20039;-72
2021/03/11 11:13:06;;;;;;;8.63;1.58;;;24.10;55.00;;;;;;5079088;28;20028;-72
2021/03/11 11:15:33;;;;;;;8.25;2.45;;;24.10;53.80;;;;;;5080566;28;20141;-70
2021/03/11 11:18:01;;;;;;;4.38;1.27;;;24.20;54.80;;;;;;5081194;28;20470;-72
2021/03/11 11:20:29;;;;;;;3.83;1.10;;;24.30;54.10;;;;;;5084644;28;20032;-70
2021/03/11 11:22:55;;;;;;;7.35;1.33;;;24.30;53.10;;;;;;5086151;28;20118;-71
2021/03/11 11:25:22;;;;;;;4.40;1.40;;;24.40;53.40;;;;;;5088236;28;20035;-71
2021/03/11 11:27:48;;;;;;;8.32;3.20;;;24.40;53.00;;;;;;5086122;28;20032;-72
2021/03/11 11:30:16;;;;;;;5.20;1.75;;;24.40;51.90;;;;;;5085109;28;20080;-72
2021/03/11 11:32:43;;;;;;;3.88;1.08;;;24.60;51.90;;;;;;5084114;28;20029;-72
2021/03/11 11:35:10;;;;;;;5.13;1.23;;;24.80;52.70;;;;;;5080804;28;20028;-72
2021/03/11 11:38:16;;;;;;;3.78;0.93;;;25.00;51.50;;;;;;5077300;28;20064;-71
2021/03/11 11:41:02;;;;;;;;;;;25.10;48.60;;;;;;5082984;28;20029;-71
2021/03/11 11:44:08;;;;;;;4.50;0.90;;;25.20;48.60;;;;;;5084382;28;19916;-70
2021/03/11 11:46:54;;;;;;;;;;;25.30;49.30;;;;;;5080594;28;20052;-70
2021/03/11 11:50:00;;;;;;;4.22;0.98;;;25.30;48.80;;;;;;5082070;28;20472;-71
2021/03/11 11:52:46;;;;;;;;;;;25.40;48.80;;;;;;5087591;28;20086;-71
2021/03/11 11:55:13;;;;;;;7.07;1.85;;;25.50;48.00;;;;;;5086402;28;19949;-71
2021/03/11 11:57:41;;;;;;;104.28;94.07;;;25.60;47.90;;;;;;5083184;28;20115;-71
2021/03/11 12:00:14;;;;;;;6.30;4.60;;;25.70;47.70;;;;;;5083459;28;20028;-71
2021/03/11 12:02:41;;;;;;;6.63;1.52;;;25.80;47.00;;;;;;5085096;28;20128;-71
2021/03/11 12:05:08;;;;;;;29.75;26.20;;;25.90;47.50;;;;;;5083317;28;20021;-70
2021/03/11 12:07:35;;;;;;;19.98;16.77;;;25.90;47.20;;;;;;5084310;28;20070;-72
2021/03/11 12:10:04;;;;;;;5.53;1.30;;;26.00;46.30;;;;;;5069514;28;20401;-71
2021/03/11 12:12:32;;;;;;;4.40;1.30;;;26.10;45.80;;;;;;5082872;28;20114;-71
2021/03/11 12:14:58;;;;;;;4.57;1.40;;;26.20;45.80;;;;;;5084349;28;20424;-70
2021/03/11 12:17:25;;;;;;;5.80;1.13;;;26.30;45.60;;;;;;5073660;28;20039;-71
2021/03/11 12:19:51;;;;;;;5.85;1.50;;;26.30;44.70;;;;;;5079680;28;20032;-71
2021/03/11 12:22:18;;;;;;;5.35;1.17;;;26.40;44.70;;;;;;5081643;28;20463;-72
2021/03/11 12:24:44;;;;;;;3.13;0.90;;;26.60;44.80;;;;;;5083614;28;20023;-72
2021/03/11 12:27:11;;;;;;;4.65;1.38;;;26.60;43.80;;;;;;5080947;28;20020;-71
2021/03/11 12:29:37;;;;;;;7.55;1.60;;;26.60;44.60;;;;;;5084770;28;20042;-71
2021/03/11 12:32:04;;;;;;;4.05;1.15;;;26.70;44.50;;;;;;5082408;28;20337;-72
2021/03/11 12:34:31;;;;;;;7.47;4.22;;;26.80;44.10;;;;;;5080633;28;20429;-72
2021/03/11 12:36:58;;;;;;;6.93;2.33;;;26.80;44.00;;;;;;5082553;28;20021;-71
2021/03/11 12:39:24;;;;;;;5.32;1.65;;;26.70;43.80;;;;;;5075886;28;20562;-72
2021/03/11 12:41:51;;;;;;;6.43;1.20;;;26.80;44.20;;;;;;5082325;28;20123;-72
2021/03/11 12:44:17;;;;;;;5.68;1.65;;;26.70;43.80;;;;;;5078085;28;20016;-71
2021/03/11 12:46:44;;;;;;;4.25;0.80;;;26.70;44.70;;;;;;5077387;28;20193;-72
2021/03/11 12:49:10;;;;;;;6.50;1.27;;;26.80;42.90;;;;;;5077699;28;20025;-72
2021/03/11 12:51:37;;;;;;;6.50;1.02;;;26.90;42.80;;;;;;5072696;28;20021;-71
2021/03/11 12:54:04;;;;;;;7.82;1.20;;;26.90;42.90;;;;;;5079879;28;20028;-71
2021/03/11 12:56:31;;;;;;;7.63;1.67;;;27.00;42.80;;;;;;5076741;28;20060;-71
2021/03/11 12:58:57;;;;;;;4.60;1.40;;;27.00;42.70;;;;;;5081001;28;20048;-72
2021/03/11 13:01:25;;;;;;;4.68;1.00;;;27.00;42.00;;;;;;5074923;28;20020;-73
2021/03/11 13:03:52;;;;;;;4.18;0.95;;;27.00;42.50;;;;;;5080000;28;20012;-73
2021/03/11 13:06:18;;;;;;;16.85;14.55;;;27.00;42.00;;;;;;5075522;28;20028;-72
2021/03/11 13:08:45;;;;;;;6.68;3.00;;;27.00;42.70;;;;;;5076509;28;20498;-71
2021/03/11 13:11:12;;;;;;;2.25;1.00;;;27.00;42.60;;;;;;5076847;28;20027;-72
2021/03/11 13:13:40;;;;;;;4.05;2.17;;;27.00;42.60;;;;;;5081366;28;20440;-72
2021/03/11 13:16:07;;;;;;;5.10;1.05;;;27.10;42.30;;;;;;5079168;28;20028;-73
2021/03/11 13:18:33;;;;;;;4.90;1.25;;;27.10;42.60;;;;;;5075988;28;20059;-72
2021/03/11 13:21:40;;;;;;;3.50;2.13;;;27.20;42.20;;;;;;5073584;28;20505;-70
2021/03/11 13:24:46;;;;;;;9.10;4.95;;;27.20;42.40;;;;;;5078875;28;20134;-70
2021/03/11 13:27:52;;;;;;;6.95;1.25;;;27.20;41.70;;;;;;5076707;28;20117;-71
2021/03/11 13:30:58;;;;;;;3.88;1.30;;;27.10;42.00;;;;;;5081580;28;20119;-71
2021/03/11 13:34:04;;;;;;;2.78;1.10;;;26.90;42.00;;;;;;5080023;28;20024;-71
2021/03/11 13:37:11;;;;;;;5.72;1.85;;;26.80;42.10;;;;;;5074730;28;20487;-72
2021/03/11 13:40:17;;;;;;;3.63;1.42;;;26.90;42.20;;;;;;5071475;28;20032;-70
2021/03/11 13:42:44;;;;;;;2.80;1.45;;;26.80;41.90;;;;;;5077891;28;20044;-73
2021/03/11 13:45:11;;;;;;;4.65;1.50;;;26.80;42.10;;;;;;5077333;28;20607;-71
2021/03/11 13:48:17;;;;;;;2.75;0.80;;;26.80;41.90;;;;;;5082622;28;20024;-73
2021/03/11 13:51:23;;;;;;;3.47;1.13;;;26.80;42.00;;;;;;5079046;28;20062;-70
2021/03/11 13:54:29;;;;;;;5.90;1.25;;;26.80;41.90;;;;;;5075793;28;20016;-73
2021/03/11 13:57:35;;;;;;;4.03;1.88;;;26.80;42.60;;;;;;5081114;28;20456;-73
2021/03/11 14:00:41;;;;;;;3.78;1.15;;;26.70;43.00;;;;;;5074409;28;20054;-69
2021/03/11 14:03:47;;;;;;;2.63;1.10;;;26.80;43.60;;;;;;5081933;28;20040;-71
2021/03/11 14:06:53;;;;;;;5.85;1.50;;;26.80;44.00;;;;;;5075950;28;20032;-69
2021/03/11 14:10:00;;;;;;;3.50;1.20;;;26.80;43.60;;;;;;5078388;28;20157;-72
2021/03/11 14:13:06;;;;;;;3.97;1.20;;;26.80;44.00;;;;;;5081532;28;20034;-71
2021/03/11 14:16:12;;;;;;;7.55;1.70;;;26.70;44.00;;;;;;5078516;28;20475;-70
2021/03/11 14:18:38;;;;;;;3.38;1.35;;;26.60;44.70;;;;;;5081388;28;20516;-71
2021/03/11 14:21:44;;;;;;;5.18;1.02;;;26.40;44.50;;;;;;5081735;28;20040;-72
2021/03/11 14:24:50;;;;;;;11.68;1.38;;;26.30;44.60;;;;;;5071911;28;20029;-75
2021/03/11 14:27:57;;;;;;;6.65;2.33;;;26.30;45.20;;;;;;5074581;28;20119;-73
2021/03/11 14:31:03;;;;;;;6.82;1.33;;;26.20;45.40;;;;;;5086477;28;20081;-77
2021/03/11 14:33:29;;;;;;;6.07;1.52;;;26.20;45.50;;;;;;5084568;28;20046;-76
2021/03/11 14:35:56;;;;;;;14.85;12.57;;;26.00;45.00;;;;;;5078515;28;20012;-76
2021/03/11 14:38:22;;;;;;;2.70;1.33;;;26.00;45.50;;;;;;5083810;28;20033;-75
2021/03/11 14:40:49;;;;;;;3.70;1.50;;;25.80;44.80;;;;;;5086310;28;20058;-73
2021/03/11 14:43:16;;;;;;;4.28;1.20;;;25.80;45.20;;;;;;5077234;28;20103;-72
2021/03/11 14:45:42;;;;;;;5.03;1.65;;;25.70;45.80;;;;;;5082938;28;20071;-77
2021/03/11 14:48:09;;;;;;;4.10;1.48;;;25.70;46.20;;;;;;5079478;28;20016;-74
2021/03/11 14:50:36;;;;;;;5.75;1.40;;;25.60;45.40;;;;;;5085339;28;20364;-76
2021/03/11 14:53:03;;;;;;;9.23;2.13;;;25.50;45.50;;;;;;5084173;28;20027;-74
2021/03/11 14:55:30;;;;;;;5.47;2.03;;;25.40;46.80;;;;;;5086478;28;20024;-72
2021/03/11 14:57:56;;;;;;;6.38;2.63;;;25.40;46.90;;;;;;5083562;28;20036;-73
2021/03/11 15:00:23;;;;;;;5.85;1.02;;;25.30;48.10;;;;;;5083122;28;20016;-72
2021/03/11 15:02:50;;;;;;;4.93;1.23;;;25.20;48.00;;;;;;5082303;28;20830;-72
2021/03/11 15:05:21;;;;;;;3.60;1.48;;;25.10;47.60;;;;;;5085355;28;20024;-74
2021/03/11 15:07:51;;;;;;;4.22;1.55;;;25.10;48.20;;;;;;5086495;28;20029;-74
2021/03/11 15:10:21;;;;;;;6.97;2.15;;;25.20;48.40;;;;;;5081320;28;20013;-73
2021/03/11 15:12:47;;;;;;;20.25;3.17;;;25.20;49.30;;;;;;5080532;28;20133;-73
2021/03/11 15:15:19;;;;;;;7.05;1.88;;;25.30;49.60;;;;;;5074914;28;20798;-73
2021/03/11 15:17:46;;;;;;;6.55;1.33;;;25.30;49.30;;;;;;5080400;28;20060;-74
2021/03/11 15:20:13;;;;;;;6.05;1.30;;;25.30;49.50;;;;;;5081523;28;20099;-74
2021/03/11 15:22:40;;;;;;;6.78;1.90;;;25.30;49.60;;;;;;5084287;28;20020;-73
2021/03/11 15:25:08;;;;;;;4.15;1.63;;;25.30;49.70;;;;;;5079433;28;20067;-73
2021/03/11 15:27:35;;;;;;;5.18;2.95;;;25.30;50.10;;;;;;5083279;28;20028;-74
2021/03/11 15:30:02;;;;;;;20.15;2.15;;;25.20;50.60;;;;;;5081003;28;20074;-73
2021/03/11 15:32:28;;;;;;;7.60;2.10;;;25.10;51.10;;;;;;5079177;28;20022;-77
2021/03/11 15:34:56;;;;;;;5.03;1.27;;;25.10;51.10;;;;;;5079588;28;20051;-70
2021/03/11 15:37:23;;;;;;;6.78;2.20;;;25.10;51.30;;;;;;5080381;28;20467;-72
2021/03/11 15:39:49;;;;;;;10.52;1.98;;;25.00;51.30;;;;;;5081985;28;20021;-74
2021/03/11 15:42:16;;;;;;;5.57;2.05;;;24.90;51.90;;;;;;5080966;28;20131;-73
2021/03/11 15:44:44;;;;;;;5.20;1.25;;;24.80;52.90;;;;;;5082574;28;20016;-73
2021/03/11 15:47:12;;;;;;;8.15;2.00;;;24.80;52.80;;;;;;5076288;28;20024;-75
2021/03/11 15:49:39;;;;;;;16.45;2.75;;;24.80;52.90;;;;;;5079134;28;20024;-76
2021/03/11 15:52:05;;;;;;;12.35;6.15;;;24.70;51.90;;;;;;5080053;28;20020;-77
2021/03/11 15:54:33;;;;;;;65.65;54.33;;;24.70;51.60;;;;;;5077865;28;20017;-78